createdAt,value
2023-01-09T00:00:57.923Z,99038.50
2023-01-09T00:03:24.670Z,99041.94
2023-01-09T00:05:51.469Z,99040.56
2023-01-09T00:08:19.020Z,99039.59
2023-01-09T00:10:46.132Z,99041.31
2023-01-09T00:13:13.997Z,99050.94
2023-01-09T00:15:41.770Z,99045.75
2023-01-09T00:18:08.722Z,99048.97
2023-01-09T00:20:36.113Z,99041.97
2023-01-09T00:23:03.295Z,99035.53
2023-01-09T00:25:29.960Z,99045.56
2023-01-09T00:27:56.587Z,99035.16
2023-01-09T00:30:23.399Z,99031.13
2023-01-09T00:32:50.057Z,99027.72
2023-01-09T00:35:18.596Z,99024.69
2023-01-09T00:37:45.789Z,99021.28
2023-01-09T00:40:15.095Z,99027.69
2023-01-09T00:42:43.537Z,99017.47
2023-01-09T00:45:16.181Z,99023.91
2023-01-09T00:47:47.810Z,99031.09
2023-01-09T00:50:22.187Z,99023.84
2023-01-09T00:52:51.651Z,99025.09
2023-01-09T00:55:18.664Z,99032.06
2023-01-09T00:57:45.585Z,99027.50
2023-01-09T01:00:13.068Z,99023.69
2023-01-09T01:02:41.996Z,99022.72
2023-01-09T01:05:30.008Z,99030.97
2023-01-09T01:07:56.708Z,99026.72
2023-01-09T01:10:25.780Z,99026.56
2023-01-09T01:12:53.073Z,99024.56
2023-01-09T01:15:20.521Z,99029.41
2023-01-09T01:17:47.531Z,99023.34
2023-01-09T01:20:17.641Z,99041.78
2023-01-09T01:22:44.697Z,99043.00
2023-01-09T01:25:13.074Z,99052.69
2023-01-09T01:27:40.404Z,99052.72
2023-01-09T01:30:09.104Z,99049.50
2023-01-09T01:32:35.780Z,99042.28
2023-01-09T01:35:02.521Z,99044.06
2023-01-09T01:37:29.220Z,99046.69
2023-01-09T01:39:55.913Z,99046.28
2023-01-09T01:42:22.730Z,99044.44
2023-01-09T01:45:13.178Z,99045.81
2023-01-09T01:47:45.905Z,99045.81
2023-01-09T01:50:24.525Z,99048.72
2023-01-09T01:53:14.597Z,99044.94
2023-01-09T01:56:03.819Z,99045.13
2023-01-09T01:58:31.004Z,99053.06
2023-01-09T02:00:58.443Z,99051.69
2023-01-09T02:03:28.135Z,99055.31
2023-01-09T02:05:55.315Z,99046.50
2023-01-09T02:08:22.587Z,99047.06
2023-01-09T02:10:50.733Z,99043.91
2023-01-09T02:13:18.773Z,99051.91
2023-01-09T02:16:09.731Z,99052.47
2023-01-09T02:19:06.690Z,99049.47
2023-01-09T02:21:48.895Z,99047.25
2023-01-09T02:24:28.321Z,99042.06
2023-01-09T02:27:19.266Z,99042.63
2023-01-09T02:30:18.779Z,99037.78
2023-01-09T02:32:45.365Z,99044.34
2023-01-09T02:35:33.668Z,99040.31
2023-01-09T02:38:24.978Z,99036.31
2023-01-09T02:41:08.649Z,99048.22
2023-01-09T02:43:35.297Z,99036.94
2023-01-09T02:46:02.023Z,99038.06
2023-01-09T02:48:30.380Z,99045.47
2023-01-09T02:51:33.767Z,99038.78
2023-01-09T02:54:22.356Z,99048.13
2023-01-09T02:57:07.380Z,99042.22
2023-01-09T02:59:43.302Z,99043.84
2023-01-09T03:02:29.668Z,99052.19
2023-01-09T03:05:22.230Z,99050.13
2023-01-09T03:08:28.113Z,99048.28
2023-01-09T03:11:07.779Z,99048.81
2023-01-09T03:13:46.093Z,99034.59
2023-01-09T03:16:18.007Z,99021.88
2023-01-09T03:18:49.121Z,99036.00
2023-01-09T03:21:17.164Z,99048.19
2023-01-09T03:23:55.647Z,99046.13
2023-01-09T03:26:22.902Z,99052.22
2023-01-09T03:28:49.996Z,99053.56
2023-01-09T03:31:17.680Z,99055.38
2023-01-09T03:33:44.814Z,99066.84
2023-01-09T03:36:12.441Z,99071.41
2023-01-09T03:38:39.278Z,99081.16
2023-01-09T03:41:06.488Z,99076.03
2023-01-09T03:43:33.692Z,99071.03
2023-01-09T03:46:01.017Z,99095.13
2023-01-09T03:48:28.239Z,99095.19
2023-01-09T03:50:56.015Z,99097.53
2023-01-09T03:53:24.475Z,99110.84
2023-01-09T03:55:53.826Z,99114.78
2023-01-09T03:58:21.980Z,99118.81
2023-01-09T04:00:49.731Z,99118.09
2023-01-09T04:03:18.150Z,99123.28
2023-01-09T04:05:46.330Z,99127.22
2023-01-09T04:08:13.906Z,99122.31
2023-01-09T04:10:40.750Z,99107.00
2023-01-09T04:13:07.693Z,99126.94
2023-01-09T04:15:34.317Z,99138.66
2023-01-09T04:18:00.988Z,99140.78
2023-01-09T04:20:28.865Z,99141.44
2023-01-09T04:22:55.622Z,99133.22
2023-01-09T04:25:22.817Z,99135.66
2023-01-09T04:27:49.638Z,99143.38
2023-01-09T04:30:16.564Z,99146.22
2023-01-09T04:32:43.421Z,99130.38
2023-01-09T04:35:10.131Z,99142.19
2023-01-09T04:37:37.363Z,99129.41
2023-01-09T04:40:10.907Z,99144.25
2023-01-09T04:42:38.523Z,99152.84
2023-01-09T04:45:06.778Z,99155.31
2023-01-09T04:47:33.500Z,99158.44
2023-01-09T04:50:00.669Z,99138.78
2023-01-09T04:52:28.510Z,99165.19
2023-01-09T04:54:55.331Z,99168.78
2023-01-09T04:57:22.084Z,99164.41
2023-01-09T04:59:48.738Z,99170.72
2023-01-09T05:02:15.469Z,99172.50
2023-01-09T05:04:42.137Z,99162.66
2023-01-09T05:07:08.872Z,99161.13
2023-01-09T05:09:36.268Z,99172.81
2023-01-09T05:12:03.368Z,99170.75
2023-01-09T05:14:30.144Z,99184.78
2023-01-09T05:16:56.854Z,99187.69
2023-01-09T05:19:23.789Z,99181.06
2023-01-09T05:21:50.607Z,99198.34
2023-01-09T05:24:17.372Z,99197.41
2023-01-09T05:26:44.025Z,99185.16
2023-01-09T05:29:10.938Z,99199.72
2023-01-09T05:31:37.735Z,99207.19
2023-01-09T05:34:04.365Z,99204.25
2023-01-09T05:36:31.080Z,99205.25
2023-01-09T05:39:02.764Z,99202.78
2023-01-09T05:41:29.552Z,99202.38
2023-01-09T05:43:56.224Z,99210.19
2023-01-09T05:46:23.010Z,99207.03
2023-01-09T05:48:49.637Z,99214.63
2023-01-09T05:51:16.354Z,99215.03
2023-01-09T05:53:43.088Z,99225.47
2023-01-09T05:56:11.730Z,99218.41
2023-01-09T05:58:39.161Z,99213.88
2023-01-09T06:01:06.896Z,99215.06
2023-01-09T06:03:33.841Z,99212.63
2023-01-09T06:06:00.520Z,99210.22
2023-01-09T06:08:27.280Z,99206.69
2023-01-09T06:10:53.912Z,99211.56
2023-01-09T06:13:20.622Z,99214.75
2023-01-09T06:15:48.694Z,99207.44
2023-01-09T06:18:15.735Z,99211.56
2023-01-09T06:20:44.688Z,99211.97
2023-01-09T06:23:13.485Z,99210.50
2023-01-09T06:25:40.532Z,99225.50
2023-01-09T06:28:07.501Z,99214.31
2023-01-09T06:30:34.465Z,99218.97
2023-01-09T06:33:01.250Z,99230.34
2023-01-09T06:35:28.142Z,99218.22
2023-01-09T06:38:01.888Z,99213.28
2023-01-09T06:40:28.831Z,99225.38
2023-01-09T06:42:55.471Z,99213.28
2023-01-09T06:45:22.135Z,99224.56
2023-01-09T06:47:50.175Z,99212.63
2023-01-09T06:50:17.405Z,99221.81
2023-01-09T06:52:44.035Z,99228.72
2023-01-09T06:55:10.661Z,99228.72
2023-01-09T06:57:37.526Z,99240.63
2023-01-09T07:00:05.103Z,99229.91
2023-01-09T07:02:31.783Z,99223.44
2023-01-09T07:04:58.474Z,99227.78
2023-01-09T07:07:25.120Z,99225.38
2023-01-09T07:09:51.853Z,99231.69
2023-01-09T07:12:18.693Z,99219.88
2023-01-09T07:14:45.424Z,99233.09
2023-01-09T07:17:13.725Z,99224.72
2023-01-09T07:19:40.657Z,99232.50
2023-01-09T07:22:07.382Z,99234.41
2023-01-09T07:24:34.041Z,99235.91
2023-01-09T07:27:01.803Z,99242.38
2023-01-09T07:29:28.535Z,99241.69
2023-01-09T07:31:55.273Z,99241.03
2023-01-09T07:34:21.985Z,99233.44
2023-01-09T07:36:50.709Z,99241.94
2023-01-09T07:39:18.692Z,99239.88
2023-01-09T07:41:45.925Z,99237.81
2023-01-09T07:44:13.513Z,99252.22
2023-01-09T07:46:40.519Z,99242.72
2023-01-09T07:49:07.581Z,99238.78
2023-01-09T07:51:34.477Z,99253.41
2023-01-09T07:54:01.483Z,99253.41
2023-01-09T07:56:28.141Z,99240.47
2023-01-09T07:58:54.834Z,99245.75
2023-01-09T08:01:21.555Z,99238.03
2023-01-09T08:03:48.347Z,99241.09
2023-01-09T08:06:14.976Z,99249.16
2023-01-09T08:08:41.691Z,99234.47
2023-01-09T08:11:08.417Z,99253.22
2023-01-09T08:13:35.100Z,99245.94
2023-01-09T08:16:01.762Z,99253.84
2023-01-09T08:18:28.458Z,99242.44
2023-01-09T08:20:55.144Z,99256.78
2023-01-09T08:23:21.831Z,99258.34
2023-01-09T08:25:48.521Z,99258.78
2023-01-09T08:28:15.163Z,99240.69
2023-01-09T08:30:41.761Z,99244.03
2023-01-09T08:33:08.481Z,99257.94
2023-01-09T08:35:35.533Z,99229.31
2023-01-09T08:38:02.206Z,99257.09
2023-01-09T08:40:28.904Z,99252.72
2023-01-09T08:43:13.891Z,99245.28
2023-01-09T08:45:59.476Z,99254.59
2023-01-09T08:48:26.093Z,99250.22
2023-01-09T08:50:54.305Z,99253.88
2023-01-09T08:53:21.360Z,99260.66
2023-01-09T08:55:48.268Z,99258.59
2023-01-09T08:58:14.999Z,99257.84
2023-01-09T09:00:41.800Z,99249.44
2023-01-09T09:03:10.986Z,99263.69
2023-01-09T09:05:37.648Z,99274.81
2023-01-09T09:08:04.947Z,99260.47
2023-01-09T09:10:31.605Z,99248.19
2023-01-09T09:12:59.541Z,99268.56
2023-01-09T09:15:27.707Z,99247.22
2023-01-09T09:17:55.609Z,99253.38
2023-01-09T09:20:28.236Z,99268.75
2023-01-09T09:22:54.978Z,99253.56
2023-01-09T09:25:22.282Z,99258.75
2023-01-09T09:27:49.286Z,99261.91
2023-01-09T09:30:18.539Z,99264.31
2023-01-09T09:32:45.840Z,99253.19
2023-01-09T09:35:13.045Z,99262.34
2023-01-09T09:37:39.714Z,99255.09
2023-01-09T09:40:17.946Z,99251.97
2023-01-09T09:43:28.105Z,99258.88
2023-01-09T09:46:03.906Z,99255.28
2023-01-09T09:48:40.699Z,99266.91
2023-01-09T09:51:07.303Z,99269.97
2023-01-09T09:54:19.697Z,99266.38
2023-01-09T09:56:57.531Z,99280.00
2023-01-09T09:59:37.151Z,99281.69
2023-01-09T10:02:25.811Z,99272.91
2023-01-09T10:05:00.672Z,99272.28
2023-01-09T10:07:35.149Z,99277.75
2023-01-09T10:10:05.970Z,99292.00
2023-01-09T10:12:59.895Z,99285.22
2023-01-09T10:15:45.910Z,99262.81
2023-01-09T10:18:30.833Z,99290.34
2023-01-09T10:21:03.969Z,99280.41
2023-01-09T10:23:36.740Z,99279.56
2023-01-09T10:26:32.747Z,99287.03
2023-01-09T10:29:38.334Z,99273.50
2023-01-09T10:32:13.817Z,99270.88
2023-01-09T10:34:56.592Z,99262.47
2023-01-09T10:37:29.472Z,99278.78
2023-01-09T10:40:17.713Z,99264.69
2023-01-09T10:42:48.950Z,99271.94
2023-01-09T10:45:26.426Z,99272.41
2023-01-09T10:48:01.393Z,99272.50
2023-01-09T10:50:33.946Z,99279.13
2023-01-09T10:53:05.164Z,99276.81
2023-01-09T10:55:50.378Z,99272.84
2023-01-09T10:58:19.503Z,99277.06
2023-01-09T11:00:47.768Z,99272.84
2023-01-09T11:03:16.847Z,99278.75
2023-01-09T11:05:53.622Z,99285.81
2023-01-09T11:08:24.017Z,99289.03
2023-01-09T11:10:59.793Z,99285.47
2023-01-09T11:13:32.613Z,99292.53
2023-01-09T11:16:11.399Z,99317.13
2023-01-09T11:18:49.878Z,99293.44
2023-01-09T11:21:32.906Z,99289.03
2023-01-09T11:24:25.537Z,99293.53
2023-01-09T11:26:54.087Z,99288.25
2023-01-09T11:29:25.673Z,99303.41
2023-01-09T11:31:55.284Z,99289.03
2023-01-09T11:34:26.028Z,99285.22
2023-01-09T11:36:55.252Z,99296.03
2023-01-09T11:39:28.330Z,99285.91
2023-01-09T11:41:58.172Z,99294.78
2023-01-09T11:44:26.247Z,99302.03
2023-01-09T11:46:53.003Z,99297.28
2023-01-09T11:49:25.063Z,99294.69
2023-01-09T11:52:19.743Z,99300.53
2023-01-09T11:54:52.477Z,99309.69
2023-01-09T11:57:21.684Z,99314.34
2023-01-09T11:59:48.369Z,99317.03
2023-01-09T12:02:53.961Z,99332.75
2023-01-09T12:05:41.892Z,99334.28
2023-01-09T12:08:34.659Z,99341.81
2023-01-09T12:11:10.251Z,99333.81
2023-01-09T12:13:36.927Z,99331.47
2023-01-09T12:16:26.682Z,99340.09
2023-01-09T12:19:11.177Z,99342.53
2023-01-09T12:21:51.670Z,99347.53
2023-01-09T12:24:44.673Z,99332.03
2023-01-09T12:27:42.352Z,99340.81
2023-01-09T12:30:40.086Z,99341.97
2023-01-09T12:33:19.441Z,99353.72
2023-01-09T12:35:55.214Z,99361.00
2023-01-09T12:38:54.599Z,99363.78
2023-01-09T12:42:06.495Z,99378.59
2023-01-09T12:44:57.473Z,99401.63
2023-01-09T12:47:27.124Z,99397.38
2023-01-09T12:50:20.685Z,99394.97
2023-01-09T12:52:53.017Z,99392.94
2023-01-09T12:55:23.780Z,99389.78
2023-01-09T12:57:53.475Z,99398.06
2023-01-09T13:00:42.980Z,99402.22
2023-01-09T13:03:37.719Z,99401.75
2023-01-09T13:06:10.844Z,99399.47
2023-01-09T13:09:13.450Z,99400.28
2023-01-09T13:11:54.425Z,99418.47
2023-01-09T13:14:45.298Z,99419.94
2023-01-09T13:17:20.269Z,99418.28
2023-01-09T13:19:47.016Z,99421.16
2023-01-09T13:22:15.721Z,99428.75
2023-01-09T13:24:51.665Z,99424.31
2023-01-09T13:27:20.104Z,99430.31
2023-01-09T13:29:52.404Z,99429.78
2023-01-09T13:32:34.352Z,99428.00
2023-01-09T13:35:03.752Z,99426.72
2023-01-09T13:37:33.301Z,99429.72
2023-01-09T13:40:20.259Z,99435.25
2023-01-09T13:43:05.306Z,99450.13
2023-01-09T13:45:37.673Z,99457.88
2023-01-09T13:48:17.880Z,99473.13
2023-01-09T13:50:48.523Z,99472.72
2023-01-09T13:53:17.856Z,99481.66
2023-01-09T13:55:59.941Z,99474.59
2023-01-09T13:58:28.532Z,99485.53
2023-01-09T14:00:58.565Z,99488.47
2023-01-09T14:03:27.055Z,99488.81
2023-01-09T14:05:53.720Z,99489.56
2023-01-09T14:08:26.898Z,99496.66
2023-01-09T14:10:57.925Z,99499.34
2023-01-09T14:13:25.971Z,99509.88
2023-01-09T14:16:07.212Z,99511.56
2023-01-09T14:18:38.376Z,99516.38
2023-01-09T14:21:12.879Z,99525.34
2023-01-09T14:24:01.263Z,99531.81
2023-01-09T14:27:12.721Z,99544.00
2023-01-09T14:29:40.892Z,99538.44
2023-01-09T14:32:22.918Z,99549.19
2023-01-09T14:34:55.057Z,99553.91
2023-01-09T14:37:22.093Z,99553.91
2023-01-09T14:39:51.241Z,99570.00
2023-01-09T14:42:27.495Z,99562.19
2023-01-09T14:45:15.684Z,99569.38
2023-01-09T14:48:07.187Z,99572.78
2023-01-09T14:50:45.161Z,99584.66
2023-01-09T14:53:18.927Z,99574.25
2023-01-09T14:55:58.096Z,99592.47
2023-01-09T14:58:29.356Z,99595.53
2023-01-09T15:01:01.605Z,99610.69
2023-01-09T15:03:42.812Z,99626.66
2023-01-09T15:06:37.343Z,99624.47
2023-01-09T15:09:27.832Z,99634.78
2023-01-09T15:12:04.433Z,99639.00
2023-01-09T15:14:39.983Z,99653.16
2023-01-09T15:17:15.878Z,99664.56
2023-01-09T15:19:45.846Z,99663.94
2023-01-09T15:22:37.887Z,99670.94
2023-01-09T15:25:38.487Z,99677.56
2023-01-09T15:28:25.383Z,99701.75
2023-01-09T15:31:00.894Z,99693.66
2023-01-09T15:33:27.827Z,99684.13
2023-01-09T15:36:00.325Z,99687.69
2023-01-09T15:38:28.785Z,99699.88
2023-01-09T15:41:11.698Z,99703.66
2023-01-09T15:43:44.548Z,99708.19
2023-01-09T15:46:14.813Z,99712.25
2023-01-09T15:48:41.953Z,99725.06
2023-01-09T15:51:17.042Z,99728.66
2023-01-09T15:53:46.679Z,99725.41
2023-01-09T15:56:30.776Z,99730.78
2023-01-09T15:59:01.501Z,99738.25
2023-01-09T16:01:35.360Z,99742.50
2023-01-09T16:04:17.151Z,99738.91
2023-01-09T16:06:50.577Z,99756.97
2023-01-09T16:09:26.224Z,99769.94
2023-01-09T16:11:57.005Z,99768.00
2023-01-09T16:14:45.749Z,99775.97
2023-01-09T16:17:17.931Z,99780.22
2023-01-09T16:19:49.529Z,99794.38
2023-01-09T16:22:29.691Z,99797.09
2023-01-09T16:24:58.974Z,99808.66
2023-01-09T16:27:30.142Z,99800.06
2023-01-09T16:29:59.668Z,99814.66
2023-01-09T16:32:28.036Z,99812.56
2023-01-09T16:34:57.914Z,99831.22
2023-01-09T16:37:34.959Z,99826.03
2023-01-09T16:40:24.271Z,99843.56
2023-01-09T16:43:07.305Z,99844.38
2023-01-09T16:45:41.897Z,99837.38
2023-01-09T16:48:16.376Z,99847.47
2023-01-09T16:50:44.193Z,99820.34
2023-01-09T16:53:15.582Z,99848.94
2023-01-09T16:55:42.229Z,99849.91
2023-01-09T16:58:17.618Z,99865.16
2023-01-09T17:00:45.288Z,99858.16
2023-01-09T17:03:14.878Z,99866.81
2023-01-09T17:05:42.139Z,99867.44
2023-01-09T17:08:21.863Z,99866.94
2023-01-09T17:10:49.676Z,99882.03
2023-01-09T17:13:16.338Z,99879.41
2023-01-09T17:15:44.417Z,99886.09
2023-01-09T17:18:29.732Z,99890.13
2023-01-09T17:20:58.743Z,99898.75
2023-01-09T17:23:28.948Z,99908.66
2023-01-09T17:26:17.519Z,99911.75
2023-01-09T17:28:48.195Z,99919.25
2023-01-09T17:31:15.270Z,99916.78
2023-01-09T17:33:42.498Z,99906.53
2023-01-09T17:36:33.221Z,99918.09
2023-01-09T17:39:00.489Z,99922.91
2023-01-09T17:41:31.729Z,99923.84
2023-01-09T17:43:59.868Z,99925.13
2023-01-09T17:46:30.428Z,99919.28
2023-01-09T17:48:57.886Z,99929.78
2023-01-09T17:51:24.712Z,99925.38
2023-01-09T17:53:51.457Z,99942.41
2023-01-09T17:56:21.076Z,99953.44
2023-01-09T17:58:48.396Z,99948.25
2023-01-09T18:01:17.126Z,99957.81
2023-01-09T18:03:46.898Z,99937.19
2023-01-09T18:06:14.827Z,99950.22
2023-01-09T18:08:41.915Z,99954.09
2023-01-09T18:11:13.997Z,99959.56
2023-01-09T18:13:41.252Z,99961.34
2023-01-09T18:16:16.985Z,99975.94
2023-01-09T18:18:45.197Z,99976.91
2023-01-09T18:21:16.096Z,99976.06
2023-01-09T18:23:42.901Z,99976.81
2023-01-09T18:26:11.449Z,99994.34
2023-01-09T18:28:39.379Z,99998.59
2023-01-09T18:31:06.664Z,100001.34
2023-01-09T18:33:33.401Z,100003.75
2023-01-09T18:36:08.722Z,100014.13
2023-01-09T18:38:35.685Z,100005.91
2023-01-09T18:41:03.556Z,100029.91
2023-01-09T18:43:30.970Z,100021.13
2023-01-09T18:45:57.810Z,100036.22
2023-01-09T18:48:24.511Z,100045.63
2023-01-09T18:50:51.268Z,100050.31
2023-01-09T18:53:17.916Z,100048.63
2023-01-09T18:55:44.541Z,100068.09
2023-01-09T18:58:11.233Z,100065.16
2023-01-09T19:00:37.912Z,100065.59
2023-01-09T19:03:04.597Z,100073.22
2023-01-09T19:05:33.112Z,100081.59
2023-01-09T19:07:59.763Z,100081.28
2023-01-09T19:10:26.418Z,100077.88
2023-01-09T19:12:53.127Z,100096.53
2023-01-09T19:15:20.268Z,100070.25
2023-01-09T19:17:47.049Z,100101.66
2023-01-09T19:20:14.048Z,100102.19
2023-01-09T19:22:40.775Z,100113.06
2023-01-09T19:25:07.648Z,100112.19
2023-01-09T19:27:34.435Z,100120.16
2023-01-09T19:30:01.064Z,100128.63
2023-01-09T19:32:27.691Z,100123.88
2023-01-09T19:34:54.392Z,100130.69
2023-01-09T19:37:22.521Z,100137.66
2023-01-09T19:39:49.189Z,100126.59
2023-01-09T19:42:16.651Z,100152.06
2023-01-09T19:44:43.482Z,100153.22
2023-01-09T19:47:12.120Z,100140.91
2023-01-09T19:49:38.836Z,100149.44
2023-01-09T19:52:05.661Z,100152.69
2023-01-09T19:54:32.967Z,100153.59
2023-01-09T19:57:00.892Z,100164.84
2023-01-09T19:59:27.601Z,100157.25
2023-01-09T20:01:55.401Z,100173.09
2023-01-09T20:04:22.230Z,100179.16
2023-01-09T20:06:50.093Z,100183.59
2023-01-09T20:09:21.571Z,100179.69
2023-01-09T20:11:49.225Z,100184.06
2023-01-09T20:14:17.485Z,100191.84
2023-01-09T20:16:44.364Z,100196.59
2023-01-09T20:19:12.811Z,100194.34
2023-01-09T20:21:39.496Z,100201.38
2023-01-09T20:24:06.858Z,100205.16
2023-01-09T20:26:35.771Z,100204.50
2023-01-09T20:29:02.826Z,100217.84
2023-01-09T20:31:31.582Z,100201.91
2023-01-09T20:33:59.939Z,100217.84
2023-01-09T20:36:30.517Z,100215.25
2023-01-09T20:38:59.378Z,100226.00
2023-01-09T20:41:26.748Z,100231.94
2023-01-09T20:43:56.735Z,100233.97
2023-01-09T20:46:26.868Z,100243.91
2023-01-09T20:48:58.489Z,100226.75
2023-01-09T20:51:25.623Z,100245.69
2023-01-09T20:53:58.576Z,100245.97
2023-01-09T20:56:30.153Z,100261.81
2023-01-09T20:58:58.184Z,100267.19
2023-01-09T21:01:26.298Z,100257.53
2023-01-09T21:03:54.340Z,100279.34
2023-01-09T21:06:24.932Z,100277.56
2023-01-09T21:08:53.182Z,100272.94
2023-01-09T21:11:22.262Z,100267.25
2023-01-09T21:13:56.860Z,100194.94
2023-01-09T21:16:32.210Z,100208.78
2023-01-09T21:18:59.212Z,100182.19
2023-01-09T21:21:29.937Z,100150.72
2023-01-09T21:26:53.324Z,100191.03
2023-01-09T21:29:25.787Z,100186.50
2023-01-09T21:31:52.969Z,100235.34
2023-01-09T21:47:19.706Z,100249.59
2023-01-09T22:12:22.331Z,100372.47
2023-01-09T22:14:48.985Z,100388.19
2023-01-09T22:17:15.627Z,100400.16
2023-01-09T22:19:42.341Z,100396.16
2023-01-09T22:22:09.019Z,100418.91
2023-01-09T22:24:35.875Z,100404.81
2023-01-09T22:27:02.719Z,100446.28
2023-01-09T22:29:29.466Z,100420.44
2023-01-09T22:31:56.240Z,100470.06
2023-01-09T22:34:23.005Z,100433.00
2023-01-09T22:36:49.694Z,100468.97
2023-01-09T22:39:18.667Z,100470.06
2023-01-09T22:41:45.801Z,100492.44
2023-01-09T22:44:12.955Z,100473.78
2023-01-09T22:46:39.724Z,100436.47
2023-01-09T22:49:06.567Z,100484.56
2023-01-09T22:51:36.392Z,100509.09
2023-01-09T22:54:03.322Z,100475.28
2023-01-09T22:56:32.352Z,100520.84
2023-01-09T22:59:00.918Z,100476.69
2023-01-09T23:01:28.190Z,100548.84
2023-01-09T23:03:54.983Z,100371.50
2023-01-09T23:06:23.517Z,100501.38
2023-01-09T23:08:51.129Z,100528.25
2023-01-09T23:19:23.265Z,100564.53
2023-01-09T23:21:49.973Z,100561.53
2023-01-09T23:32:15.829Z,100438.03
2023-01-09T23:34:43.137Z,100526.44
2023-01-09T23:37:09.949Z,100549.19
2023-01-09T23:39:36.926Z,100572.13
2023-01-09T23:42:22.299Z,100574.59
2023-01-09T23:44:49.128Z,100613.63
2023-01-09T23:47:15.780Z,100595.75
2023-01-09T23:49:48.195Z,100616.91
2023-01-09T23:52:14.993Z,100616.25
2023-01-09T23:54:41.672Z,100632.34
2023-01-09T23:57:08.345Z,100618.41
2023-01-09T23:59:35.110Z,100622.63
